sensor_id;sensor_type;location;lat;lon;timestamp;pressure;altitude;pressure_sealevel;temperature
71807;BMP280;59655;42.590;23.364;2022-11-04T00:06:19;91681.44;;;11.68
71807;BMP280;59655;42.590;23.364;2022-11-04T00:08:54;91683.63;;;11.54
71807;BMP280;59655;42.590;23.364;2022-11-04T00:11:27;91687.19;;;11.41
71807;BMP280;59655;42.590;23.364;2022-11-04T00:14:12;91686.09;;;11.52
71807;BMP280;59655;42.590;23.364;2022-11-04T00:16:43;91688.34;;;11.71
71807;BMP280;59655;42.590;23.364;2022-11-04T00:19:28;91683.38;;;11.82
71807;BMP280;59655;42.590;23.364;2022-11-04T00:22:16;91671.66;;;11.86
71807;BMP280;59655;42.590;23.364;2022-11-04T00:25:10;91676.16;;;11.60
71807;BMP280;59655;42.590;23.364;2022-11-04T00:34:31;91670.53;;;11.40
71807;BMP280;59655;42.590;23.364;2022-11-04T00:37:39;91665.41;;;11.27
71807;BMP280;59655;42.590;23.364;2022-11-04T00:40:13;91668.22;;;11.29
71807;BMP280;59655;42.590;23.364;2022-11-04T00:42:45;91666.09;;;11.20
71807;BMP280;59655;42.590;23.364;2022-11-04T00:45:18;91672.13;;;11.05
71807;BMP280;59655;42.590;23.364;2022-11-04T00:47:44;91668.06;;;10.96
71807;BMP280;59655;42.590;23.364;2022-11-04T00:50:09;91662.94;;;11.06
71807;BMP280;59655;42.590;23.364;2022-11-04T00:52:40;91664.38;;;10.92
71807;BMP280;59655;42.590;23.364;2022-11-04T00:55:12;91656.03;;;10.95
71807;BMP280;59655;42.590;23.364;2022-11-04T00:57:37;91653.22;;;11.01
71807;BMP280;59655;42.590;23.364;2022-11-04T01:00:23;91651.09;;;11.07
71807;BMP280;59655;42.590;23.364;2022-11-04T01:02:50;91642.59;;;11.01
71807;BMP280;59655;42.590;23.364;2022-11-04T01:05:19;91645.41;;;11.03
71807;BMP280;59655;42.590;23.364;2022-11-04T01:08:25;91638.34;;;10.90
71807;BMP280;59655;42.590;23.364;2022-11-04T01:15:02;91632.13;;;10.95
71807;BMP280;59655;42.590;23.364;2022-11-04T01:32:47;91612.69;;;11.08
71807;BMP280;59655;42.590;23.364;2022-11-04T01:42:22;91610.53;;;11.14
71807;BMP280;59655;42.590;23.364;2022-11-04T01:44:53;91610.72;;;11.01
71807;BMP280;59655;42.590;23.364;2022-11-04T02:13:34;91584.03;;;10.84
71807;BMP280;59655;42.590;23.364;2022-11-04T02:16:29;91579.03;;;10.95
71807;BMP280;59655;42.590;23.364;2022-11-04T02:31:38;91574.31;;;10.79
71807;BMP280;59655;42.590;23.364;2022-11-04T02:35:04;91570.25;;;10.70
71807;BMP280;59655;42.590;23.364;2022-11-04T02:43:21;91565.28;;;10.51
71807;BMP280;59655;42.590;23.364;2022-11-04T03:04:46;91559.94;;;10.13
71807;BMP280;59655;42.590;23.364;2022-11-04T03:07:32;91555.72;;;10.25
71807;BMP280;59655;42.590;23.364;2022-11-04T03:10:16;91556.78;;;10.29
71807;BMP280;59655;42.590;23.364;2022-11-04T03:12:55;91567.03;;;10.10
71807;BMP280;59655;42.590;23.364;2022-11-04T03:15:34;91559.59;;;10.16
71807;BMP280;59655;42.590;23.364;2022-11-04T03:22:21;91560.84;;;10.07
71807;BMP280;59655;42.590;23.364;2022-11-04T03:24:52;91559.59;;;10.16
71807;BMP280;59655;42.590;23.364;2022-11-04T03:30:37;91559.56;;;10.01
71807;BMP280;59655;42.590;23.364;2022-11-04T03:36:10;91560.31;;;10.09
71807;BMP280;59655;42.590;23.364;2022-11-04T03:38:44;91558.19;;;10.07
71807;BMP280;59655;42.590;23.364;2022-11-04T03:41:37;91560.63;;;9.90
71807;BMP280;59655;42.590;23.364;2022-11-04T03:44:08;91550.34;;;9.86
71807;BMP280;59655;42.590;23.364;2022-11-04T03:46:33;91557.78;;;9.88
71807;BMP280;59655;42.590;23.364;2022-11-04T03:49:00;91548.19;;;9.77
71807;BMP280;59655;42.590;23.364;2022-11-04T03:51:27;91553.72;;;9.95
71807;BMP280;59655;42.590;23.364;2022-11-04T03:53:53;91543.50;;;9.99
71807;BMP280;59655;42.590;23.364;2022-11-04T04:01:55;91540.94;;;9.70
71807;BMP280;59655;42.590;23.364;2022-11-04T04:04:40;91540.09;;;9.75
71807;BMP280;59655;42.590;23.364;2022-11-04T04:07:17;91544.84;;;9.77
71807;BMP280;59655;42.590;23.364;2022-11-04T04:10:07;91544.47;;;9.65
71807;BMP280;59655;42.590;23.364;2022-11-04T04:13:14;91545.41;;;9.83
71807;BMP280;59655;42.590;23.364;2022-11-04T04:15:48;91546.63;;;9.82
71807;BMP280;59655;42.590;23.364;2022-11-04T04:18:19;91539.56;;;9.77
71807;BMP280;59655;42.590;23.364;2022-11-04T04:20:52;91546.00;;;9.53
71807;BMP280;59655;42.590;23.364;2022-11-04T04:23:23;91535.28;;;9.66
71807;BMP280;59655;42.590;23.364;2022-11-04T04:26:11;91528.22;;;9.69
71807;BMP280;59655;42.590;23.364;2022-11-04T04:28:57;91528.75;;;9.67
71807;BMP280;59655;42.590;23.364;2022-11-04T04:31:38;91527.34;;;9.66
71807;BMP280;59655;42.590;23.364;2022-11-04T04:34:22;91532.81;;;9.68
71807;BMP280;59655;42.590;23.364;2022-11-04T04:37:20;91533.88;;;9.65
71807;BMP280;59655;42.590;23.364;2022-11-04T04:39:57;91532.56;;;9.51
71807;BMP280;59655;42.590;23.364;2022-11-04T04:42:44;91532.03;;;9.44
71807;BMP280;59655;42.590;23.364;2022-11-04T04:45:36;91530.66;;;9.59
71807;BMP280;59655;42.590;23.364;2022-11-04T04:48:11;91531.75;;;9.63
71807;BMP280;59655;42.590;23.364;2022-11-04T04:50:50;91531.34;;;9.52
71807;BMP280;59655;42.590;23.364;2022-11-04T04:53:20;91533.13;;;9.57
71807;BMP280;59655;42.590;23.364;2022-11-04T04:55:48;91531.63;;;9.33
71807;BMP280;59655;42.590;23.364;2022-11-04T04:58:17;91531.03;;;9.55
71807;BMP280;59655;42.590;23.364;2022-11-04T05:00:46;91525.19;;;9.57
71807;BMP280;59655;42.590;23.364;2022-11-04T05:03:16;91530.31;;;9.62
71807;BMP280;59655;42.590;23.364;2022-11-04T05:05:42;91528.50;;;9.42
71807;BMP280;59655;42.590;23.364;2022-11-04T05:08:12;91537.00;;;9.48
71807;BMP280;59655;42.590;23.364;2022-11-04T05:11:04;91532.75;;;9.45
71807;BMP280;59655;42.590;23.364;2022-11-04T05:13:36;91528.16;;;9.45
71807;BMP280;59655;42.590;23.364;2022-11-04T05:16:30;91540.59;;;9.30
71807;BMP280;59655;42.590;23.364;2022-11-04T05:18:57;91532.53;;;9.43
71807;BMP280;59655;42.590;23.364;2022-11-04T05:21:29;91533.97;;;9.44
71807;BMP280;59655;42.590;23.364;2022-11-04T05:24:02;91542.81;;;9.47
71807;BMP280;59655;42.590;23.364;2022-11-04T05:26:36;91544.97;;;9.56
71807;BMP280;59655;42.590;23.364;2022-11-04T05:29:08;91542.66;;;9.52
71807;BMP280;59655;42.590;23.364;2022-11-04T05:31:35;91547.94;;;9.44
71807;BMP280;59655;42.590;23.364;2022-11-04T05:34:03;91538.38;;;9.49
71807;BMP280;59655;42.590;23.364;2022-11-04T05:36:32;91544.66;;;9.67
71807;BMP280;59655;42.590;23.364;2022-11-04T05:38:59;91546.53;;;9.59
71807;BMP280;59655;42.590;23.364;2022-11-04T05:41:37;91544.81;;;9.61
71807;BMP280;59655;42.590;23.364;2022-11-04T05:44:05;91558.97;;;9.72
71807;BMP280;59655;42.590;23.364;2022-11-04T05:46:37;91546.78;;;9.69
71807;BMP280;59655;42.590;23.364;2022-11-04T05:49:04;91563.25;;;9.82
71807;BMP280;59655;42.590;23.364;2022-11-04T05:51:31;91557.97;;;9.90
71807;BMP280;59655;42.590;23.364;2022-11-04T05:53:57;91570.16;;;9.93
71807;BMP280;59655;42.590;23.364;2022-11-04T05:56:22;91556.03;;;9.91
71807;BMP280;59655;42.590;23.364;2022-11-04T05:58:47;91570.53;;;10.05
71807;BMP280;59655;42.590;23.364;2022-11-04T06:01:35;91573.03;;;10.18
71807;BMP280;59655;42.590;23.364;2022-11-04T06:04:03;91575.00;;;10.25
71807;BMP280;59655;42.590;23.364;2022-11-04T06:06:35;91580.13;;;10.23
71807;BMP280;59655;42.590;23.364;2022-11-04T06:09:07;91572.34;;;10.25
71807;BMP280;59655;42.590;23.364;2022-11-04T06:11:33;91580.13;;;10.23
71807;BMP280;59655;42.590;23.364;2022-11-04T06:13:59;91591.44;;;10.24
71807;BMP280;59655;42.590;23.364;2022-11-04T06:16:25;91583.13;;;10.27
71807;BMP280;59655;42.590;23.364;2022-11-04T06:18:52;91584.72;;;10.30
71807;BMP280;59655;42.590;23.364;2022-11-04T06:21:29;91591.44;;;10.31
71807;BMP280;59655;42.590;23.364;2022-11-04T06:23:56;91588.44;;;10.35
71807;BMP280;59655;42.590;23.364;2022-11-04T06:26:26;91593.56;;;10.41
71807;BMP280;59655;42.590;23.364;2022-11-04T06:28:56;91582.09;;;10.38
71807;BMP280;59655;42.590;23.364;2022-11-04T06:31:22;91587.56;;;10.48
71807;BMP280;59655;42.590;23.364;2022-11-04T06:33:51;91583.66;;;10.49
71807;BMP280;59655;42.590;23.364;2022-11-04T06:36:20;91587.41;;;10.53
71807;BMP280;59655;42.590;23.364;2022-11-04T06:38:46;91577.47;;;10.54
71807;BMP280;59655;42.590;23.364;2022-11-04T06:41:33;91581.53;;;10.55
71807;BMP280;59655;42.590;23.364;2022-11-04T06:44:01;91578.03;;;10.52
71807;BMP280;59655;42.590;23.364;2022-11-04T06:46:45;91572.34;;;10.56
71807;BMP280;59655;42.590;23.364;2022-11-04T06:49:17;91564.75;;;10.60
71807;BMP280;59655;42.590;23.364;2022-11-04T06:51:46;91575.91;;;10.66
71807;BMP280;59655;42.590;23.364;2022-11-04T06:54:12;91575.00;;;10.64
71807;BMP280;59655;42.590;23.364;2022-11-04T06:56:40;91566.00;;;10.67
71807;BMP280;59655;42.590;23.364;2022-11-04T06:59:13;91560.88;;;10.69
71807;BMP280;59655;42.590;23.364;2022-11-04T07:01:42;91571.66;;;10.71
71807;BMP280;59655;42.590;23.364;2022-11-04T07:04:10;91569.00;;;10.71
71807;BMP280;59655;42.590;23.364;2022-11-04T07:06:42;91577.84;;;10.73
71807;BMP280;59655;42.590;23.364;2022-11-04T07:09:14;91568.09;;;10.84
71807;BMP280;59655;42.590;23.364;2022-11-04T07:11:40;91561.03;;;10.86
71807;BMP280;59655;42.590;23.364;2022-11-04T07:14:06;91573.41;;;10.91
71807;BMP280;59655;42.590;23.364;2022-11-04T07:16:33;91568.25;;;11.01
71807;BMP280;59655;42.590;23.364;2022-11-04T07:18:58;91570.91;;;11.09
71807;BMP280;59655;42.590;23.364;2022-11-04T07:21:24;91571.25;;;11.05
71807;BMP280;59655;42.590;23.364;2022-11-04T07:23:49;91557.59;;;11.16
71807;BMP280;59655;42.590;23.364;2022-11-04T07:26:15;91568.41;;;11.18
71807;BMP280;59655;42.590;23.364;2022-11-04T07:28:40;91561.13;;;11.19
71807;BMP280;59655;42.590;23.364;2022-11-04T07:31:07;91549.59;;;11.24
71807;BMP280;59655;42.590;23.364;2022-11-04T07:33:33;91559.72;;;11.26
71807;BMP280;59655;42.590;23.364;2022-11-04T07:36:03;91550.31;;;11.32
71807;BMP280;59655;42.590;23.364;2022-11-04T07:38:29;91545.53;;;11.31
71807;BMP280;59655;42.590;23.364;2022-11-04T07:40:56;91543.56;;;11.31
71807;BMP280;59655;42.590;23.364;2022-11-04T07:43:21;91531.00;;;11.32
71807;BMP280;59655;42.590;23.364;2022-11-04T07:45:58;91537.88;;;11.35
71807;BMP280;59655;42.590;23.364;2022-11-04T07:48:23;91553.66;;;11.40
71807;BMP280;59655;42.590;23.364;2022-11-04T07:50:48;91544.97;;;11.40
71807;BMP280;59655;42.590;23.364;2022-11-04T07:53:14;91548.66;;;11.45
71807;BMP280;59655;42.590;23.364;2022-11-04T07:55:39;91560.34;;;11.49
71807;BMP280;59655;42.590;23.364;2022-11-04T07:58:05;91550.97;;;11.48
71807;BMP280;59655;42.590;23.364;2022-11-04T08:00:30;91540.16;;;11.46
71807;BMP280;59655;42.590;23.364;2022-11-04T08:02:56;91540.66;;;11.52
71807;BMP280;59655;42.590;23.364;2022-11-04T08:05:21;91553.41;;;11.54
71807;BMP280;59655;42.590;23.364;2022-11-04T08:07:46;91541.00;;;11.56
71807;BMP280;59655;42.590;23.364;2022-11-04T08:10:12;91554.28;;;11.56
71807;BMP280;59655;42.590;23.364;2022-11-04T08:12:37;91534.59;;;11.59
71807;BMP280;59655;42.590;23.364;2022-11-04T08:15:03;91533.53;;;11.62
71807;BMP280;59655;42.590;23.364;2022-11-04T08:17:29;91548.38;;;11.66
71807;BMP280;59655;42.590;23.364;2022-11-04T08:19:54;91526.03;;;11.69
71807;BMP280;59655;42.590;23.364;2022-11-04T08:22:20;91538.31;;;11.64
71807;BMP280;59655;42.590;23.364;2022-11-04T08:24:45;91536.84;;;11.71
71807;BMP280;59655;42.590;23.364;2022-11-04T08:27:11;91538.41;;;11.74
71807;BMP280;59655;42.590;23.364;2022-11-04T08:29:37;91523.34;;;11.76
71807;BMP280;59655;42.590;23.364;2022-11-04T08:32:02;91534.16;;;11.78
71807;BMP280;59655;42.590;23.364;2022-11-04T08:34:28;91523.13;;;11.82
71807;BMP280;59655;42.590;23.364;2022-11-04T08:36:55;91525.44;;;11.86
71807;BMP280;59655;42.590;23.364;2022-11-04T08:39:22;91515.50;;;11.86
71807;BMP280;59655;42.590;23.364;2022-11-04T08:41:47;91516.53;;;11.91
71807;BMP280;59655;42.590;23.364;2022-11-04T08:44:16;91516.19;;;11.94
71807;BMP280;59655;42.590;23.364;2022-11-04T08:46:43;91513.81;;;11.98
71807;BMP280;59655;42.590;23.364;2022-11-04T08:49:17;91512.56;;;11.99
71807;BMP280;59655;42.590;23.364;2022-11-04T08:51:44;91511.34;;;12.00
71807;BMP280;59655;42.590;23.364;2022-11-04T08:54:23;91512.34;;;12.05
71807;BMP280;59655;42.590;23.364;2022-11-04T08:56:52;91507.19;;;12.07
71807;BMP280;59655;42.590;23.364;2022-11-04T08:59:25;91511.28;;;12.08
71807;BMP280;59655;42.590;23.364;2022-11-04T09:02:18;91512.13;;;12.11
71807;BMP280;59655;42.590;23.364;2022-11-04T09:04:45;91505.75;;;12.14
71807;BMP280;59655;42.590;23.364;2022-11-04T09:07:11;91500.75;;;12.18
71807;BMP280;59655;42.590;23.364;2022-11-04T09:09:44;91497.72;;;12.21
71807;BMP280;59655;42.590;23.364;2022-11-04T09:12:10;91500.53;;;12.23
71807;BMP280;59655;42.590;23.364;2022-11-04T09:14:43;91497.13;;;12.31
71807;BMP280;59655;42.590;23.364;2022-11-04T09:17:23;91483.41;;;12.34
71807;BMP280;59655;42.590;23.364;2022-11-04T09:20:01;91483.16;;;12.40
71807;BMP280;59655;42.590;23.364;2022-11-04T09:22:27;91476.25;;;12.44
71807;BMP280;59655;42.590;23.364;2022-11-04T09:24:57;91472.63;;;12.49
71807;BMP280;59655;42.590;23.364;2022-11-04T09:27:24;91467.59;;;12.54
71807;BMP280;59655;42.590;23.364;2022-11-04T09:29:55;91473.28;;;12.58
71807;BMP280;59655;42.590;23.364;2022-11-04T09:32:27;91472.16;;;12.61
71807;BMP280;59655;42.590;23.364;2022-11-04T09:34:55;91472.31;;;12.63
71807;BMP280;59655;42.590;23.364;2022-11-04T09:37:30;91466.06;;;12.68
71807;BMP280;59655;42.590;23.364;2022-11-04T09:40:03;91468.47;;;12.73
71807;BMP280;59655;42.590;23.364;2022-11-04T09:45:30;91459.00;;;12.80
71807;BMP280;59655;42.590;23.364;2022-11-04T09:48:04;91462.38;;;12.81
71807;BMP280;59655;42.590;23.364;2022-11-04T09:50:47;91450.63;;;12.84
71807;BMP280;59655;42.590;23.364;2022-11-04T09:55:55;91432.84;;;12.86
71807;BMP280;59655;42.590;23.364;2022-11-04T09:58:20;91430.50;;;12.90
71807;BMP280;59655;42.590;23.364;2022-11-04T10:00:54;91432.34;;;12.98
71807;BMP280;59655;42.590;23.364;2022-11-04T10:08:59;91420.56;;;13.18
71807;BMP280;59655;42.590;23.364;2022-11-04T10:17:23;91406.34;;;13.33
71807;BMP280;59655;42.590;23.364;2022-11-04T10:20:34;91408.75;;;13.38
71807;BMP280;59655;42.590;23.364;2022-11-04T10:23:21;91391.34;;;13.37
71807;BMP280;59655;42.590;23.364;2022-11-04T10:29:05;91383.94;;;13.46
71807;BMP280;59655;42.590;23.364;2022-11-04T10:31:36;91381.28;;;13.46
71807;BMP280;59655;42.590;23.364;2022-11-04T10:34:13;91380.72;;;13.47
71807;BMP280;59655;42.590;23.364;2022-11-04T10:36:46;91379.47;;;13.48
71807;BMP280;59655;42.590;23.364;2022-11-04T10:39:19;91373.72;;;13.52
71807;BMP280;59655;42.590;23.364;2022-11-04T10:41:45;91372.59;;;13.55
71807;BMP280;59655;42.590;23.364;2022-11-04T10:44:29;91354.38;;;13.61
71807;BMP280;59655;42.590;23.364;2022-11-04T10:50:11;91347.69;;;13.70
71807;BMP280;59655;42.590;23.364;2022-11-04T10:52:41;91356.66;;;13.74
71807;BMP280;59655;42.590;23.364;2022-11-04T10:55:31;91348.97;;;13.78
71807;BMP280;59655;42.590;23.364;2022-11-04T10:58:28;91332.25;;;13.88
71807;BMP280;59655;42.590;23.364;2022-11-04T11:01:29;91341.09;;;13.90
71807;BMP280;59655;42.590;23.364;2022-11-04T11:03:55;91333.97;;;14.02
71807;BMP280;59655;42.590;23.364;2022-11-04T11:06:27;91329.34;;;14.03
71807;BMP280;59655;42.590;23.364;2022-11-04T11:08:56;91332.56;;;14.01
71807;BMP280;59655;42.590;23.364;2022-11-04T11:11:38;91322.16;;;14.05
71807;BMP280;59655;42.590;23.364;2022-11-04T11:14:04;91328.50;;;14.10
71807;BMP280;59655;42.590;23.364;2022-11-04T11:16:29;91307.28;;;14.12
71807;BMP280;59655;42.590;23.364;2022-11-04T11:21:49;91297.66;;;14.58
71807;BMP280;59655;42.590;23.364;2022-11-04T11:24:27;91287.72;;;14.99
71807;BMP280;59655;42.590;23.364;2022-11-04T11:26:57;91294.78;;;14.94
71807;BMP280;59655;42.590;23.364;2022-11-04T11:29:26;91294.06;;;14.84
71807;BMP280;59655;42.590;23.364;2022-11-04T11:31:54;91288.63;;;14.72
71807;BMP280;59655;42.590;23.364;2022-11-04T11:34:32;91279.91;;;14.82
71807;BMP280;59655;42.590;23.364;2022-11-04T11:37:01;91276.78;;;14.85
71807;BMP280;59655;42.590;23.364;2022-11-04T11:39:31;91261.16;;;14.91
71807;BMP280;59655;42.590;23.364;2022-11-04T11:41:58;91266.03;;;15.05
71807;BMP280;59655;42.590;23.364;2022-11-04T11:47:04;91259.28;;;15.35
71807;BMP280;59655;42.590;23.364;2022-11-04T11:49:32;91259.28;;;15.35
71807;BMP280;59655;42.590;23.364;2022-11-04T11:52:31;91259.28;;;15.35
71807;BMP280;59655;42.590;23.364;2022-11-04T11:55:29;91240.56;;;15.35
71807;BMP280;59655;42.590;23.364;2022-11-04T11:58:20;91243.94;;;15.35
71807;BMP280;59655;42.590;23.364;2022-11-04T12:00:53;91233.34;;;15.37
71807;BMP280;59655;42.590;23.364;2022-11-04T12:03:32;91232.34;;;15.43
71807;BMP280;59655;42.590;23.364;2022-11-04T12:14:12;91235.03;;;15.97
71807;BMP280;59655;42.590;23.364;2022-11-04T12:22:51;91225.22;;;16.35
71807;BMP280;59655;42.590;23.364;2022-11-04T12:28:13;91219.47;;;16.29
71807;BMP280;59655;42.590;23.364;2022-11-04T12:31:03;91227.09;;;16.79
71807;BMP280;59655;42.590;23.364;2022-11-04T12:33:56;91229.66;;;16.66
71807;BMP280;59655;42.590;23.364;2022-11-04T12:41:42;91214.97;;;16.55
71807;BMP280;59655;42.590;23.364;2022-11-04T12:49:35;91220.56;;;16.71
71807;BMP280;59655;42.590;23.364;2022-11-04T12:52:33;91218.78;;;17.11
71807;BMP280;59655;42.590;23.364;2022-11-04T12:57:53;91213.44;;;17.11
71807;BMP280;59655;42.590;23.364;2022-11-04T13:00:21;91209.69;;;17.16
71807;BMP280;59655;42.590;23.364;2022-11-04T13:03:10;91213.69;;;17.03
71807;BMP280;59655;42.590;23.364;2022-11-04T13:05:45;91213.31;;;17.09
71807;BMP280;59655;42.590;23.364;2022-11-04T13:10:50;91203.41;;;17.11
71807;BMP280;59655;42.590;23.364;2022-11-04T13:13:21;91210.88;;;17.01
71807;BMP280;59655;42.590;23.364;2022-11-04T13:15:56;91213.69;;;16.91
71807;BMP280;59655;42.590;23.364;2022-11-04T13:18:25;91212.16;;;17.00
71807;BMP280;59655;42.590;23.364;2022-11-04T13:21:15;91209.09;;;17.06
71807;BMP280;59655;42.590;23.364;2022-11-04T13:26:17;91219.28;;;16.84
71807;BMP280;59655;42.590;23.364;2022-11-04T13:28:44;91219.88;;;16.82
71807;BMP280;59655;42.590;23.364;2022-11-04T13:32:00;91214.63;;;16.84
71807;BMP280;59655;42.590;23.364;2022-11-04T13:39:45;91222.16;;;17.86
71807;BMP280;59655;42.590;23.364;2022-11-04T13:45:13;91204.78;;;17.87
71807;BMP280;59655;42.590;23.364;2022-11-04T13:47:50;91207.84;;;17.81
71807;BMP280;59655;42.590;23.364;2022-11-04T13:52:58;91206.97;;;17.65
71807;BMP280;59655;42.590;23.364;2022-11-04T13:55:23;91197.72;;;17.54
71807;BMP280;59655;42.590;23.364;2022-11-04T13:58:00;91192.72;;;17.48
71807;BMP280;59655;42.590;23.364;2022-11-04T14:00:36;91204.81;;;17.50
71807;BMP280;59655;42.590;23.364;2022-11-04T14:06:04;91209.38;;;17.47
71807;BMP280;59655;42.590;23.364;2022-11-04T14:08:30;91203.06;;;17.42
71807;BMP280;59655;42.590;23.364;2022-11-04T14:18:49;91200.34;;;17.17
71807;BMP280;59655;42.590;23.364;2022-11-04T14:21:26;91183.78;;;17.20
71807;BMP280;59655;42.590;23.364;2022-11-04T14:24:02;91183.34;;;17.12
71807;BMP280;59655;42.590;23.364;2022-11-04T14:26:46;91187.31;;;17.11
71807;BMP280;59655;42.590;23.364;2022-11-04T14:29:24;91186.81;;;17.15
71807;BMP280;59655;42.590;23.364;2022-11-04T14:31:57;91175.09;;;17.08
71807;BMP280;59655;42.590;23.364;2022-11-04T14:34:33;91176.38;;;17.07
71807;BMP280;59655;42.590;23.364;2022-11-04T14:37:18;91178.22;;;17.05
71807;BMP280;59655;42.590;23.364;2022-11-04T14:39:44;91180.59;;;16.98
71807;BMP280;59655;42.590;23.364;2022-11-04T14:42:13;91180.59;;;16.98
71807;BMP280;59655;42.590;23.364;2022-11-04T14:44:47;91181.97;;;16.99
71807;BMP280;59655;42.590;23.364;2022-11-04T14:47:27;91170.53;;;16.99
71807;BMP280;59655;42.590;23.364;2022-11-04T15:02:45;91167.19;;;16.75
71807;BMP280;59655;42.590;23.364;2022-11-04T15:05:22;91159.66;;;16.71
71807;BMP280;59655;42.590;23.364;2022-11-04T15:07:50;91161.84;;;16.75
71807;BMP280;59655;42.590;23.364;2022-11-04T15:12:46;91151.97;;;16.66
71807;BMP280;59655;42.590;23.364;2022-11-04T15:18:01;91145.91;;;16.53
71807;BMP280;59655;42.590;23.364;2022-11-04T15:20:32;91147.19;;;16.52
71807;BMP280;59655;42.590;23.364;2022-11-04T15:23:01;91144.50;;;16.52
71807;BMP280;59655;42.590;23.364;2022-11-04T15:25:27;91145.56;;;16.47
71807;BMP280;59655;42.590;23.364;2022-11-04T15:27:54;91150.34;;;16.37
71807;BMP280;59655;42.590;23.364;2022-11-04T15:30:24;91154.88;;;16.35
71807;BMP280;59655;42.590;23.364;2022-11-04T15:32:53;91155.94;;;16.29
71807;BMP280;59655;42.590;23.364;2022-11-04T15:35:21;91142.91;;;16.24
71807;BMP280;59655;42.590;23.364;2022-11-04T15:37:47;91153.00;;;16.25
71807;BMP280;59655;42.590;23.364;2022-11-04T15:40:20;91147.56;;;16.23
71807;BMP280;59655;42.590;23.364;2022-11-04T15:42:55;91154.75;;;16.21
71807;BMP280;59655;42.590;23.364;2022-11-04T15:48:47;91160.22;;;16.11
71807;BMP280;59655;42.590;23.364;2022-11-04T15:51:25;91149.28;;;16.07
71807;BMP280;59655;42.590;23.364;2022-11-04T15:54:15;91147.88;;;16.06
71807;BMP280;59655;42.590;23.364;2022-11-04T15:56:46;91143.09;;;16.04
71807;BMP280;59655;42.590;23.364;2022-11-04T15:59:31;91146.38;;;16.03
71807;BMP280;59655;42.590;23.364;2022-11-04T16:01:57;91149.38;;;15.97
71807;BMP280;59655;42.590;23.364;2022-11-04T16:04:25;91149.81;;;15.94
71807;BMP280;59655;42.590;23.364;2022-11-04T16:07:21;91150.50;;;15.94
71807;BMP280;59655;42.590;23.364;2022-11-04T16:09:52;91144.94;;;15.90
71807;BMP280;59655;42.590;23.364;2022-11-04T16:12:35;91163.44;;;15.86
71807;BMP280;59655;42.590;23.364;2022-11-04T16:15:01;91154.13;;;15.87
71807;BMP280;59655;42.590;23.364;2022-11-04T16:17:28;91149.25;;;15.95
71807;BMP280;59655;42.590;23.364;2022-11-04T16:20:00;91151.22;;;15.95
71807;BMP280;59655;42.590;23.364;2022-11-04T16:22:29;91149.38;;;15.97
71807;BMP280;59655;42.590;23.364;2022-11-04T16:24:56;91156.38;;;16.02
71807;BMP280;59655;42.590;23.364;2022-11-04T16:27:23;91155.06;;;16.03
71807;BMP280;59655;42.590;23.364;2022-11-04T16:30:05;91161.47;;;15.98
71807;BMP280;59655;42.590;23.364;2022-11-04T16:32:43;91155.41;;;15.98
71807;BMP280;59655;42.590;23.364;2022-11-04T16:35:34;91150.19;;;16.00
71807;BMP280;59655;42.590;23.364;2022-11-04T16:38:22;91155.06;;;16.03
71807;BMP280;59655;42.590;23.364;2022-11-04T16:41:04;91159.63;;;16.01
71807;BMP280;59655;42.590;23.364;2022-11-04T16:43:40;91163.31;;;15.96
71807;BMP280;59655;42.590;23.364;2022-11-04T16:46:11;91143.06;;;15.93
71807;BMP280;59655;42.590;23.364;2022-11-04T16:48:38;91146.78;;;15.87
71807;BMP280;59655;42.590;23.364;2022-11-04T16:51:04;91145.84;;;15.83
71807;BMP280;59655;42.590;23.364;2022-11-04T16:53:52;91144.06;;;15.76
71807;BMP280;59655;42.590;23.364;2022-11-04T16:56:26;91146.31;;;15.79
71807;BMP280;59655;42.590;23.364;2022-11-04T16:59:08;91139.09;;;15.82
71807;BMP280;59655;42.590;23.364;2022-11-04T17:01:39;91139.75;;;15.71
71807;BMP280;59655;42.590;23.364;2022-11-04T17:04:05;91145.56;;;15.67
71807;BMP280;59655;42.590;23.364;2022-11-04T17:06:37;91141.97;;;15.62
71807;BMP280;59655;42.590;23.364;2022-11-04T17:09:22;91146.63;;;15.62
71807;BMP280;59655;42.590;23.364;2022-11-04T17:11:51;91135.19;;;15.61
71807;BMP280;59655;42.590;23.364;2022-11-04T17:14:16;91149.06;;;15.58
71807;BMP280;59655;42.590;23.364;2022-11-04T17:16:43;91148.19;;;15.55
71807;BMP280;59655;42.590;23.364;2022-11-04T17:19:14;91151.44;;;15.54
71807;BMP280;59655;42.590;23.364;2022-11-04T17:21:45;91155.28;;;15.51
71807;BMP280;59655;42.590;23.364;2022-11-04T17:24:16;91164.44;;;15.48
71807;BMP280;59655;42.590;23.364;2022-11-04T17:26:41;91169.00;;;15.45
71807;BMP280;59655;42.590;23.364;2022-11-04T17:29:06;91166.56;;;15.49
71807;BMP280;59655;42.590;23.364;2022-11-04T17:31:32;91176.13;;;15.52
71807;BMP280;59655;42.590;23.364;2022-11-04T17:33:58;91170.50;;;15.48
71807;BMP280;59655;42.590;23.364;2022-11-04T17:36:24;91166.31;;;15.45
71807;BMP280;59655;42.590;23.364;2022-11-04T17:38:55;91169.13;;;15.47
71807;BMP280;59655;42.590;23.364;2022-11-04T17:41:25;91174.66;;;15.39
71807;BMP280;59655;42.590;23.364;2022-11-04T17:44:09;91169.19;;;15.37
71807;BMP280;59655;42.590;23.364;2022-11-04T17:46:38;91159.50;;;15.32
71807;BMP280;59655;42.590;23.364;2022-11-04T17:49:22;91164.28;;;15.34
71807;BMP280;59655;42.590;23.364;2022-11-04T17:51:50;91161.63;;;15.34
71807;BMP280;59655;42.590;23.364;2022-11-04T17:54:19;91162.75;;;15.31
71807;BMP280;59655;42.590;23.364;2022-11-04T17:56:46;91161.94;;;15.28
71807;BMP280;59655;42.590;23.364;2022-11-04T17:59:15;91166.25;;;15.33
71807;BMP280;59655;42.590;23.364;2022-11-04T18:01:42;91165.75;;;15.25
71807;BMP280;59655;42.590;23.364;2022-11-04T18:04:16;91166.47;;;15.26
71807;BMP280;59655;42.590;23.364;2022-11-04T18:06:43;91166.06;;;15.19
71807;BMP280;59655;42.590;23.364;2022-11-04T18:09:12;91175.00;;;15.12
71807;BMP280;59655;42.590;23.364;2022-11-04T18:11:55;91168.59;;;14.96
71807;BMP280;59655;42.590;23.364;2022-11-04T18:14:42;91162.88;;;14.90
71807;BMP280;59655;42.590;23.364;2022-11-04T18:17:08;91159.31;;;14.76
71807;BMP280;59655;42.590;23.364;2022-11-04T18:19:34;91159.19;;;14.73